sensor_id;sensor_type;location;lat;lon;timestamp;P1;durP1;ratioP1;P2;durP2;ratioP2
38053;SDS011;23859;50.672;7.164;2022-10-16T00:00:38;4.85;;;3.80;;
38053;SDS011;23859;50.672;7.164;2022-10-16T00:03:05;7.07;;;4.13;;
38053;SDS011;23859;50.672;7.164;2022-10-16T00:05:31;4.85;;;3.50;;
38053;SDS011;23859;50.672;7.164;2022-10-16T00:08:02;5.95;;;3.72;;
38053;SDS011;23859;50.672;7.164;2022-10-16T00:10:28;11.55;;;3.85;;
38053;SDS011;23859;50.672;7.164;2022-10-16T00:12:55;4.75;;;3.70;;
38053;SDS011;23859;50.672;7.164;2022-10-16T00:15:21;6.53;;;3.78;;
38053;SDS011;23859;50.672;7.164;2022-10-16T00:17:47;8.68;;;3.38;;
38053;SDS011;23859;50.672;7.164;2022-10-16T00:20:13;5.97;;;3.55;;
38053;SDS011;23859;50.672;7.164;2022-10-16T00:22:39;7.20;;;3.90;;
38053;SDS011;23859;50.672;7.164;2022-10-16T00:25:05;6.53;;;3.65;;
38053;SDS011;23859;50.672;7.164;2022-10-16T00:27:32;6.70;;;3.90;;
38053;SDS011;23859;50.672;7.164;2022-10-16T00:29:58;5.95;;;4.18;;
38053;SDS011;23859;50.672;7.164;2022-10-16T00:32:24;8.98;;;4.82;;
38053;SDS011;23859;50.672;7.164;2022-10-16T00:34:50;7.47;;;4.80;;
38053;SDS011;23859;50.672;7.164;2022-10-16T00:37:19;8.05;;;3.88;;
38053;SDS011;23859;50.672;7.164;2022-10-16T00:39:45;9.25;;;4.28;;
38053;SDS011;23859;50.672;7.164;2022-10-16T00:42:15;5.97;;;3.80;;
38053;SDS011;23859;50.672;7.164;2022-10-16T00:44:47;6.97;;;4.82;;
38053;SDS011;23859;50.672;7.164;2022-10-16T00:47:19;6.15;;;4.30;;
38053;SDS011;23859;50.672;7.164;2022-10-16T00:49:55;8.38;;;4.10;;
38053;SDS011;23859;50.672;7.164;2022-10-16T00:52:24;9.93;;;4.65;;
38053;SDS011;23859;50.672;7.164;2022-10-16T00:54:50;7.32;;;4.28;;
38053;SDS011;23859;50.672;7.164;2022-10-16T00:57:19;7.55;;;4.78;;
38053;SDS011;23859;50.672;7.164;2022-10-16T00:59:45;10.30;;;5.63;;
38053;SDS011;23859;50.672;7.164;2022-10-16T01:02:13;8.40;;;4.20;;
38053;SDS011;23859;50.672;7.164;2022-10-16T01:04:44;8.88;;;4.65;;
38053;SDS011;23859;50.672;7.164;2022-10-16T01:17:43;6.90;;;4.60;;
38053;SDS011;23859;50.672;7.164;2022-10-16T01:20:24;5.00;;;3.95;;
38053;SDS011;23859;50.672;7.164;2022-10-16T01:25:59;6.32;;;5.03;;
38053;SDS011;23859;50.672;7.164;2022-10-16T01:28:32;6.70;;;4.47;;
38053;SDS011;23859;50.672;7.164;2022-10-16T01:31:23;8.43;;;4.78;;
38053;SDS011;23859;50.672;7.164;2022-10-16T01:36:59;9.18;;;4.35;;
38053;SDS011;23859;50.672;7.164;2022-10-16T01:39:31;6.28;;;4.15;;
38053;SDS011;23859;50.672;7.164;2022-10-16T01:42:05;6.05;;;4.25;;
38053;SDS011;23859;50.672;7.164;2022-10-16T01:45:02;10.77;;;4.47;;
38053;SDS011;23859;50.672;7.164;2022-10-16T01:47:32;8.48;;;4.80;;
38053;SDS011;23859;50.672;7.164;2022-10-16T01:50:01;8.90;;;4.75;;
38053;SDS011;23859;50.672;7.164;2022-10-16T01:52:29;6.95;;;4.05;;
38053;SDS011;23859;50.672;7.164;2022-10-16T01:54:59;8.55;;;5.00;;
38053;SDS011;23859;50.672;7.164;2022-10-16T01:57:28;8.38;;;4.60;;
38053;SDS011;23859;50.672;7.164;2022-10-16T01:59:58;11.88;;;4.35;;
38053;SDS011;23859;50.672;7.164;2022-10-16T02:02:30;6.15;;;4.75;;
38053;SDS011;23859;50.672;7.164;2022-10-16T02:05:10;8.02;;;4.25;;
38053;SDS011;23859;50.672;7.164;2022-10-16T02:07:38;5.25;;;3.65;;
38053;SDS011;23859;50.672;7.164;2022-10-16T02:10:06;6.05;;;3.92;;
38053;SDS011;23859;50.672;7.164;2022-10-16T02:12:33;5.93;;;3.45;;
38053;SDS011;23859;50.672;7.164;2022-10-16T02:15:04;4.90;;;3.72;;
38053;SDS011;23859;50.672;7.164;2022-10-16T02:17:31;9.27;;;4.13;;
38053;SDS011;23859;50.672;7.164;2022-10-16T02:19:57;6.68;;;3.78;;
38053;SDS011;23859;50.672;7.164;2022-10-16T02:22:30;7.47;;;3.55;;
38053;SDS011;23859;50.672;7.164;2022-10-16T02:30:18;4.97;;;3.78;;
38053;SDS011;23859;50.672;7.164;2022-10-16T02:32:58;6.28;;;3.83;;
38053;SDS011;23859;50.672;7.164;2022-10-16T02:35:28;9.20;;;3.80;;
38053;SDS011;23859;50.672;7.164;2022-10-16T02:37:56;5.03;;;3.53;;
38053;SDS011;23859;50.672;7.164;2022-10-16T02:40:23;5.38;;;4.15;;
38053;SDS011;23859;50.672;7.164;2022-10-16T02:42:51;5.78;;;4.07;;
38053;SDS011;23859;50.672;7.164;2022-10-16T02:45:19;5.65;;;3.85;;
38053;SDS011;23859;50.672;7.164;2022-10-16T02:47:45;5.28;;;3.88;;
38053;SDS011;23859;50.672;7.164;2022-10-16T02:50:12;4.25;;;3.70;;
38053;SDS011;23859;50.672;7.164;2022-10-16T02:52:38;4.45;;;3.58;;
38053;SDS011;23859;50.672;7.164;2022-10-16T02:55:04;5.20;;;3.95;;
38053;SDS011;23859;50.672;7.164;2022-10-16T02:57:30;5.75;;;3.60;;
38053;SDS011;23859;50.672;7.164;2022-10-16T02:59:56;8.15;;;3.63;;
38053;SDS011;23859;50.672;7.164;2022-10-16T03:02:23;5.00;;;3.80;;
38053;SDS011;23859;50.672;7.164;2022-10-16T03:04:49;6.47;;;3.50;;
38053;SDS011;23859;50.672;7.164;2022-10-16T03:07:15;9.18;;;3.28;;
38053;SDS011;23859;50.672;7.164;2022-10-16T03:09:41;4.85;;;3.22;;
38053;SDS011;23859;50.672;7.164;2022-10-16T03:12:07;5.45;;;3.78;;
38053;SDS011;23859;50.672;7.164;2022-10-16T03:14:33;4.72;;;2.88;;
38053;SDS011;23859;50.672;7.164;2022-10-16T03:16:59;9.07;;;3.33;;
38053;SDS011;23859;50.672;7.164;2022-10-16T03:19:25;5.80;;;3.35;;
38053;SDS011;23859;50.672;7.164;2022-10-16T03:21:51;3.35;;;2.90;;
38053;SDS011;23859;50.672;7.164;2022-10-16T03:24:17;3.97;;;2.95;;
38053;SDS011;23859;50.672;7.164;2022-10-16T03:26:44;5.22;;;2.83;;
38053;SDS011;23859;50.672;7.164;2022-10-16T03:29:10;3.05;;;1.88;;
38053;SDS011;23859;50.672;7.164;2022-10-16T03:31:36;2.63;;;2.40;;
38053;SDS011;23859;50.672;7.164;2022-10-16T03:34:02;2.88;;;1.90;;
38053;SDS011;23859;50.672;7.164;2022-10-16T03:36:28;2.83;;;1.85;;
38053;SDS011;23859;50.672;7.164;2022-10-16T03:38:54;3.42;;;1.58;;
38053;SDS011;23859;50.672;7.164;2022-10-16T03:41:20;9.52;;;2.65;;
38053;SDS011;23859;50.672;7.164;2022-10-16T03:43:46;3.08;;;2.13;;
38053;SDS011;23859;50.672;7.164;2022-10-16T03:46:12;2.28;;;2.08;;
38053;SDS011;23859;50.672;7.164;2022-10-16T03:48:38;3.70;;;1.92;;
38053;SDS011;23859;50.672;7.164;2022-10-16T03:51:05;1.88;;;1.60;;
38053;SDS011;23859;50.672;7.164;2022-10-16T03:53:31;3.00;;;1.83;;
38053;SDS011;23859;50.672;7.164;2022-10-16T03:55:58;4.68;;;2.78;;
38053;SDS011;23859;50.672;7.164;2022-10-16T03:58:24;2.85;;;2.00;;
38053;SDS011;23859;50.672;7.164;2022-10-16T04:00:50;2.58;;;2.03;;
38053;SDS011;23859;50.672;7.164;2022-10-16T04:03:16;2.30;;;1.90;;
38053;SDS011;23859;50.672;7.164;2022-10-16T04:05:43;2.70;;;2.20;;
38053;SDS011;23859;50.672;7.164;2022-10-16T04:08:09;6.57;;;2.05;;
38053;SDS011;23859;50.672;7.164;2022-10-16T04:10:36;5.13;;;2.00;;
38053;SDS011;23859;50.672;7.164;2022-10-16T04:13:02;6.38;;;1.67;;
38053;SDS011;23859;50.672;7.164;2022-10-16T04:15:28;2.78;;;2.10;;
38053;SDS011;23859;50.672;7.164;2022-10-16T04:17:54;2.45;;;1.60;;
38053;SDS011;23859;50.672;7.164;2022-10-16T04:20:20;1.95;;;1.65;;
38053;SDS011;23859;50.672;7.164;2022-10-16T04:22:46;3.40;;;1.73;;
38053;SDS011;23859;50.672;7.164;2022-10-16T04:25:12;4.00;;;2.10;;
38053;SDS011;23859;50.672;7.164;2022-10-16T04:27:38;1.95;;;1.75;;
38053;SDS011;23859;50.672;7.164;2022-10-16T04:30:05;3.20;;;1.88;;
38053;SDS011;23859;50.672;7.164;2022-10-16T04:32:31;3.38;;;1.98;;
38053;SDS011;23859;50.672;7.164;2022-10-16T04:34:57;3.20;;;1.83;;
38053;SDS011;23859;50.672;7.164;2022-10-16T04:37:26;4.22;;;1.77;;
38053;SDS011;23859;50.672;7.164;2022-10-16T04:39:53;2.80;;;1.95;;
38053;SDS011;23859;50.672;7.164;2022-10-16T04:42:19;4.15;;;1.60;;
38053;SDS011;23859;50.672;7.164;2022-10-16T04:44:45;2.13;;;1.60;;
38053;SDS011;23859;50.672;7.164;2022-10-16T04:47:12;1.50;;;1.40;;
38053;SDS011;23859;50.672;7.164;2022-10-16T04:49:38;3.45;;;1.83;;
38053;SDS011;23859;50.672;7.164;2022-10-16T04:52:04;4.95;;;1.60;;
38053;SDS011;23859;50.672;7.164;2022-10-16T04:54:30;1.65;;;1.55;;
38053;SDS011;23859;50.672;7.164;2022-10-16T04:56:56;1.92;;;1.40;;
38053;SDS011;23859;50.672;7.164;2022-10-16T04:59:23;1.70;;;1.45;;
38053;SDS011;23859;50.672;7.164;2022-10-16T05:01:49;6.35;;;1.98;;
38053;SDS011;23859;50.672;7.164;2022-10-16T05:04:15;2.40;;;2.20;;
38053;SDS011;23859;50.672;7.164;2022-10-16T05:06:41;3.78;;;2.22;;
38053;SDS011;23859;50.672;7.164;2022-10-16T05:09:08;2.20;;;2.10;;
38053;SDS011;23859;50.672;7.164;2022-10-16T05:11:34;2.50;;;2.05;;
38053;SDS011;23859;50.672;7.164;2022-10-16T05:14:01;5.07;;;1.95;;
38053;SDS011;23859;50.672;7.164;2022-10-16T05:16:27;3.20;;;2.10;;
38053;SDS011;23859;50.672;7.164;2022-10-16T05:18:55;4.50;;;2.45;;
38053;SDS011;23859;50.672;7.164;2022-10-16T05:21:21;3.50;;;2.20;;
38053;SDS011;23859;50.672;7.164;2022-10-16T05:23:47;4.32;;;2.45;;
38053;SDS011;23859;50.672;7.164;2022-10-16T05:26:13;3.00;;;2.70;;
38053;SDS011;23859;50.672;7.164;2022-10-16T05:28:40;4.82;;;2.90;;
38053;SDS011;23859;50.672;7.164;2022-10-16T05:31:06;3.78;;;2.97;;
38053;SDS011;23859;50.672;7.164;2022-10-16T05:33:33;2.58;;;2.38;;
38053;SDS011;23859;50.672;7.164;2022-10-16T05:36:06;6.30;;;2.88;;
38053;SDS011;23859;50.672;7.164;2022-10-16T05:38:34;7.20;;;2.75;;
38053;SDS011;23859;50.672;7.164;2022-10-16T05:41:01;3.10;;;2.65;;
38053;SDS011;23859;50.672;7.164;2022-10-16T05:43:28;6.15;;;2.67;;
38053;SDS011;23859;50.672;7.164;2022-10-16T05:45:58;4.60;;;2.63;;
38053;SDS011;23859;50.672;7.164;2022-10-16T05:48:30;3.03;;;2.47;;
38053;SDS011;23859;50.672;7.164;2022-10-16T05:51:00;10.88;;;3.63;;
38053;SDS011;23859;50.672;7.164;2022-10-16T05:53:35;3.38;;;2.60;;
38053;SDS011;23859;50.672;7.164;2022-10-16T05:56:03;3.65;;;2.63;;
38053;SDS011;23859;50.672;7.164;2022-10-16T05:58:30;7.38;;;2.50;;
38053;SDS011;23859;50.672;7.164;2022-10-16T06:01:01;4.45;;;2.63;;
38053;SDS011;23859;50.672;7.164;2022-10-16T06:03:38;5.15;;;2.25;;
38053;SDS011;23859;50.672;7.164;2022-10-16T06:06:15;3.65;;;2.53;;
38053;SDS011;23859;50.672;7.164;2022-10-16T06:08:42;4.15;;;3.00;;
38053;SDS011;23859;50.672;7.164;2022-10-16T06:11:11;3.55;;;2.50;;
38053;SDS011;23859;50.672;7.164;2022-10-16T06:13:42;6.68;;;2.33;;
38053;SDS011;23859;50.672;7.164;2022-10-16T06:16:08;4.70;;;2.47;;
38053;SDS011;23859;50.672;7.164;2022-10-16T06:18:35;3.53;;;2.38;;
38053;SDS011;23859;50.672;7.164;2022-10-16T06:21:06;3.58;;;2.60;;
38053;SDS011;23859;50.672;7.164;2022-10-16T06:23:37;4.00;;;2.58;;
38053;SDS011;23859;50.672;7.164;2022-10-16T06:28:32;2.97;;;2.38;;
38053;SDS011;23859;50.672;7.164;2022-10-16T06:30:58;4.00;;;2.70;;
38053;SDS011;23859;50.672;7.164;2022-10-16T06:33:25;2.78;;;2.53;;
38053;SDS011;23859;50.672;7.164;2022-10-16T06:35:51;2.60;;;2.28;;
38053;SDS011;23859;50.672;7.164;2022-10-16T06:38:17;3.17;;;2.60;;
38053;SDS011;23859;50.672;7.164;2022-10-16T06:40:43;5.68;;;3.08;;
38053;SDS011;23859;50.672;7.164;2022-10-16T06:43:09;3.70;;;2.33;;
38053;SDS011;23859;50.672;7.164;2022-10-16T06:45:35;3.33;;;2.33;;
38053;SDS011;23859;50.672;7.164;2022-10-16T06:48:01;2.97;;;2.53;;
38053;SDS011;23859;50.672;7.164;2022-10-16T06:50:27;3.35;;;2.25;;
38053;SDS011;23859;50.672;7.164;2022-10-16T06:52:53;2.88;;;2.03;;
38053;SDS011;23859;50.672;7.164;2022-10-16T06:55:19;9.02;;;3.03;;
38053;SDS011;23859;50.672;7.164;2022-10-16T06:57:46;3.92;;;2.45;;
38053;SDS011;23859;50.672;7.164;2022-10-16T07:00:13;6.97;;;2.53;;
38053;SDS011;23859;50.672;7.164;2022-10-16T07:02:39;3.42;;;2.40;;
38053;SDS011;23859;50.672;7.164;2022-10-16T07:05:05;6.32;;;2.08;;
38053;SDS011;23859;50.672;7.164;2022-10-16T07:07:32;8.60;;;2.25;;
38053;SDS011;23859;50.672;7.164;2022-10-16T07:09:58;3.08;;;2.13;;
38053;SDS011;23859;50.672;7.164;2022-10-16T07:12:24;2.92;;;1.90;;
38053;SDS011;23859;50.672;7.164;2022-10-16T07:14:50;3.17;;;1.90;;
38053;SDS011;23859;50.672;7.164;2022-10-16T07:17:17;1.92;;;1.60;;
38053;SDS011;23859;50.672;7.164;2022-10-16T07:19:43;2.25;;;1.85;;
38053;SDS011;23859;50.672;7.164;2022-10-16T07:22:09;4.43;;;1.90;;
38053;SDS011;23859;50.672;7.164;2022-10-16T07:24:36;2.13;;;1.58;;
38053;SDS011;23859;50.672;7.164;2022-10-16T07:27:02;1.90;;;1.70;;
38053;SDS011;23859;50.672;7.164;2022-10-16T07:29:28;4.57;;;2.10;;
38053;SDS011;23859;50.672;7.164;2022-10-16T07:31:54;3.45;;;1.80;;
38053;SDS011;23859;50.672;7.164;2022-10-16T07:34:20;3.53;;;1.60;;
38053;SDS011;23859;50.672;7.164;2022-10-16T07:36:49;3.00;;;1.50;;
38053;SDS011;23859;50.672;7.164;2022-10-16T07:39:16;3.20;;;1.70;;
38053;SDS011;23859;50.672;7.164;2022-10-16T07:41:43;2.17;;;1.75;;
38053;SDS011;23859;50.672;7.164;2022-10-16T07:44:09;4.93;;;2.53;;
38053;SDS011;23859;50.672;7.164;2022-10-16T07:46:35;1.80;;;1.70;;
38053;SDS011;23859;50.672;7.164;2022-10-16T07:49:01;3.03;;;2.05;;
38053;SDS011;23859;50.672;7.164;2022-10-16T07:51:28;3.97;;;1.85;;
38053;SDS011;23859;50.672;7.164;2022-10-16T07:53:54;5.10;;;2.17;;
38053;SDS011;23859;50.672;7.164;2022-10-16T07:56:20;2.40;;;1.77;;
38053;SDS011;23859;50.672;7.164;2022-10-16T07:58:47;3.13;;;1.70;;
38053;SDS011;23859;50.672;7.164;2022-10-16T08:01:15;3.30;;;1.25;;
38053;SDS011;23859;50.672;7.164;2022-10-16T08:03:43;3.70;;;1.52;;
38053;SDS011;23859;50.672;7.164;2022-10-16T08:06:10;3.25;;;1.50;;
38053;SDS011;23859;50.672;7.164;2022-10-16T08:08:36;1.90;;;1.67;;
38053;SDS011;23859;50.672;7.164;2022-10-16T08:11:02;2.33;;;1.23;;
38053;SDS011;23859;50.672;7.164;2022-10-16T08:13:29;4.25;;;2.38;;
38053;SDS011;23859;50.672;7.164;2022-10-16T08:15:55;2.83;;;2.00;;
38053;SDS011;23859;50.672;7.164;2022-10-16T08:18:21;1.67;;;1.42;;
38053;SDS011;23859;50.672;7.164;2022-10-16T08:20:48;4.22;;;1.77;;
38053;SDS011;23859;50.672;7.164;2022-10-16T08:23:25;1.98;;;1.63;;
38053;SDS011;23859;50.672;7.164;2022-10-16T08:31:07;7.30;;;1.50;;
38053;SDS011;23859;50.672;7.164;2022-10-16T08:33:33;2.85;;;1.80;;
38053;SDS011;23859;50.672;7.164;2022-10-16T08:36:00;2.10;;;1.50;;
38053;SDS011;23859;50.672;7.164;2022-10-16T08:38:27;2.25;;;1.70;;
38053;SDS011;23859;50.672;7.164;2022-10-16T08:40:54;3.92;;;2.03;;
38053;SDS011;23859;50.672;7.164;2022-10-16T08:46:15;2.05;;;1.48;;
38053;SDS011;23859;50.672;7.164;2022-10-16T08:49:01;1.38;;;1.05;;
38053;SDS011;23859;50.672;7.164;2022-10-16T08:51:32;1.92;;;1.00;;
38053;SDS011;23859;50.672;7.164;2022-10-16T08:54:02;1.17;;;0.98;;
38053;SDS011;23859;50.672;7.164;2022-10-16T08:56:40;2.15;;;1.00;;
38053;SDS011;23859;50.672;7.164;2022-10-16T08:59:06;1.10;;;0.82;;
38053;SDS011;23859;50.672;7.164;2022-10-16T09:01:37;1.30;;;0.98;;
38053;SDS011;23859;50.672;7.164;2022-10-16T09:12:16;1.00;;;0.70;;
38053;SDS011;23859;50.672;7.164;2022-10-16T09:23:27;2.45;;;1.02;;
38053;SDS011;23859;50.672;7.164;2022-10-16T09:25:55;1.63;;;1.00;;
38053;SDS011;23859;50.672;7.164;2022-10-16T09:28:24;1.55;;;0.88;;
38053;SDS011;23859;50.672;7.164;2022-10-16T09:30:50;2.17;;;1.08;;
38053;SDS011;23859;50.672;7.164;2022-10-16T09:33:20;1.95;;;0.70;;
38053;SDS011;23859;50.672;7.164;2022-10-16T09:35:53;2.40;;;0.68;;
38053;SDS011;23859;50.672;7.164;2022-10-16T09:47:19;3.60;;;0.68;;
38053;SDS011;23859;50.672;7.164;2022-10-16T09:49:52;1.30;;;0.80;;
38053;SDS011;23859;50.672;7.164;2022-10-16T09:52:24;1.70;;;0.60;;
38053;SDS011;23859;50.672;7.164;2022-10-16T09:54:57;0.82;;;0.68;;
38053;SDS011;23859;50.672;7.164;2022-10-16T09:57:25;2.72;;;0.75;;
38053;SDS011;23859;50.672;7.164;2022-10-16T09:59:53;1.27;;;0.50;;
38053;SDS011;23859;50.672;7.164;2022-10-16T10:02:25;1.92;;;0.40;;
38053;SDS011;23859;50.672;7.164;2022-10-16T10:04:55;1.23;;;0.50;;
38053;SDS011;23859;50.672;7.164;2022-10-16T10:07:25;1.92;;;0.50;;
38053;SDS011;23859;50.672;7.164;2022-10-16T10:09:55;1.95;;;0.63;;
38053;SDS011;23859;50.672;7.164;2022-10-16T10:12:23;1.52;;;0.60;;
38053;SDS011;23859;50.672;7.164;2022-10-16T10:15:04;3.20;;;0.57;;
38053;SDS011;23859;50.672;7.164;2022-10-16T10:17:32;0.40;;;0.32;;
38053;SDS011;23859;50.672;7.164;2022-10-16T10:20:00;1.05;;;0.50;;
38053;SDS011;23859;50.672;7.164;2022-10-16T10:22:46;3.42;;;0.88;;
38053;SDS011;23859;50.672;7.164;2022-10-16T10:30:42;3.50;;;0.52;;
38053;SDS011;23859;50.672;7.164;2022-10-16T10:44:16;1.40;;;1.10;;
38053;SDS011;23859;50.672;7.164;2022-10-16T10:46:56;0.80;;;0.50;;
38053;SDS011;23859;50.672;7.164;2022-10-16T10:52:41;1.08;;;0.47;;
38053;SDS011;23859;50.672;7.164;2022-10-16T10:55:23;0.88;;;0.35;;
38053;SDS011;23859;50.672;7.164;2022-10-16T11:06:18;1.23;;;0.50;;
38053;SDS011;23859;50.672;7.164;2022-10-16T11:14:14;0.77;;;0.70;;
38053;SDS011;23859;50.672;7.164;2022-10-16T11:16:53;2.75;;;0.88;;
38053;SDS011;23859;50.672;7.164;2022-10-16T11:22:12;0.70;;;0.50;;
38053;SDS011;23859;50.672;7.164;2022-10-16T11:27:36;0.82;;;0.20;;
38053;SDS011;23859;50.672;7.164;2022-10-16T11:30:18;1.70;;;0.45;;
38053;SDS011;23859;50.672;7.164;2022-10-16T11:35:44;0.43;;;0.30;;
38053;SDS011;23859;50.672;7.164;2022-10-16T11:38:14;1.98;;;0.57;;
38053;SDS011;23859;50.672;7.164;2022-10-16T11:43:52;0.38;;;0.20;;
38053;SDS011;23859;50.672;7.164;2022-10-16T11:49:16;0.75;;;0.55;;
38053;SDS011;23859;50.672;7.164;2022-10-16T11:51:52;1.35;;;0.70;;
38053;SDS011;23859;50.672;7.164;2022-10-16T11:56:59;1.13;;;0.50;;
38053;SDS011;23859;50.672;7.164;2022-10-16T11:59:36;5.13;;;0.85;;
38053;SDS011;23859;50.672;7.164;2022-10-16T12:08:00;1.02;;;0.40;;
38053;SDS011;23859;50.672;7.164;2022-10-16T12:10:35;1.45;;;0.43;;
38053;SDS011;23859;50.672;7.164;2022-10-16T12:13:03;1.15;;;0.40;;
38053;SDS011;23859;50.672;7.164;2022-10-16T12:15:49;0.43;;;0.40;;
38053;SDS011;23859;50.672;7.164;2022-10-16T12:18:25;2.92;;;0.52;;
38053;SDS011;23859;50.672;7.164;2022-10-16T12:20:55;1.10;;;0.50;;
38053;SDS011;23859;50.672;7.164;2022-10-16T12:23:24;2.25;;;0.95;;
38053;SDS011;23859;50.672;7.164;2022-10-16T12:25:56;1.83;;;0.85;;
38053;SDS011;23859;50.672;7.164;2022-10-16T12:28:42;2.10;;;0.60;;
38053;SDS011;23859;50.672;7.164;2022-10-16T12:31:13;2.08;;;0.57;;
38053;SDS011;23859;50.672;7.164;2022-10-16T12:33:40;0.55;;;0.32;;
38053;SDS011;23859;50.672;7.164;2022-10-16T12:36:15;1.35;;;0.65;;
38053;SDS011;23859;50.672;7.164;2022-10-16T12:38:52;3.45;;;0.30;;
38053;SDS011;23859;50.672;7.164;2022-10-16T12:41:32;1.58;;;0.45;;
38053;SDS011;23859;50.672;7.164;2022-10-16T12:44:00;0.95;;;0.40;;
38053;SDS011;23859;50.672;7.164;2022-10-16T12:51:39;1.10;;;0.50;;
38053;SDS011;23859;50.672;7.164;2022-10-16T13:02:36;3.33;;;0.47;;
38053;SDS011;23859;50.672;7.164;2022-10-16T13:05:17;2.00;;;0.57;;
38053;SDS011;23859;50.672;7.164;2022-10-16T13:08:17;0.52;;;0.50;;
38053;SDS011;23859;50.672;7.164;2022-10-16T13:11:06;0.77;;;0.38;;
38053;SDS011;23859;50.672;7.164;2022-10-16T13:14:04;0.77;;;0.50;;
38053;SDS011;23859;50.672;7.164;2022-10-16T13:19:32;0.30;;;0.30;;
38053;SDS011;23859;50.672;7.164;2022-10-16T13:30:21;0.43;;;0.35;;
38053;SDS011;23859;50.672;7.164;2022-10-16T13:33:03;0.40;;;0.30;;
38053;SDS011;23859;50.672;7.164;2022-10-16T13:35:33;0.43;;;0.43;;
38053;SDS011;23859;50.672;7.164;2022-10-16T13:38:19;0.32;;;0.32;;
38053;SDS011;23859;50.672;7.164;2022-10-16T13:43:44;0.80;;;0.60;;
38053;SDS011;23859;50.672;7.164;2022-10-16T13:46:18;0.50;;;0.40;;
38053;SDS011;23859;50.672;7.164;2022-10-16T13:51:32;1.02;;;0.75;;
38053;SDS011;23859;50.672;7.164;2022-10-16T13:53:58;2.83;;;0.60;;
38053;SDS011;23859;50.672;7.164;2022-10-16T13:56:25;0.63;;;0.52;;
38053;SDS011;23859;50.672;7.164;2022-10-16T13:59:00;1.45;;;0.65;;
38053;SDS011;23859;50.672;7.164;2022-10-16T14:01:33;0.90;;;0.52;;
38053;SDS011;23859;50.672;7.164;2022-10-16T14:04:09;0.50;;;0.40;;
38053;SDS011;23859;50.672;7.164;2022-10-16T14:06:40;1.55;;;0.60;;
38053;SDS011;23859;50.672;7.164;2022-10-16T14:09:24;0.70;;;0.50;;
38053;SDS011;23859;50.672;7.164;2022-10-16T14:14:38;1.23;;;0.50;;
38053;SDS011;23859;50.672;7.164;2022-10-16T14:17:16;0.93;;;0.65;;
38053;SDS011;23859;50.672;7.164;2022-10-16T14:19:49;1.50;;;0.32;;
38053;SDS011;23859;50.672;7.164;2022-10-16T14:22:30;3.08;;;0.70;;
38053;SDS011;23859;50.672;7.164;2022-10-16T14:25:24;1.05;;;0.80;;
38053;SDS011;23859;50.672;7.164;2022-10-16T14:27:57;0.85;;;0.57;;
38053;SDS011;23859;50.672;7.164;2022-10-16T14:30:30;0.95;;;0.60;;
38053;SDS011;23859;50.672;7.164;2022-10-16T14:32:59;2.25;;;0.70;;
38053;SDS011;23859;50.672;7.164;2022-10-16T14:35:33;2.85;;;0.82;;
38053;SDS011;23859;50.672;7.164;2022-10-16T14:38:03;0.98;;;0.50;;
38053;SDS011;23859;50.672;7.164;2022-10-16T14:40:32;1.48;;;0.55;;
38053;SDS011;23859;50.672;7.164;2022-10-16T14:43:00;1.08;;;0.80;;
38053;SDS011;23859;50.672;7.164;2022-10-16T14:45:28;0.73;;;0.70;;
38053;SDS011;23859;50.672;7.164;2022-10-16T14:47:58;0.80;;;0.80;;
38053;SDS011;23859;50.672;7.164;2022-10-16T14:50:39;1.33;;;0.80;;
38053;SDS011;23859;50.672;7.164;2022-10-16T14:53:10;0.70;;;0.60;;
38053;SDS011;23859;50.672;7.164;2022-10-16T14:55:37;4.65;;;0.90;;
38053;SDS011;23859;50.672;7.164;2022-10-16T14:58:05;1.10;;;0.73;;
38053;SDS011;23859;50.672;7.164;2022-10-16T15:00:38;2.97;;;0.73;;
38053;SDS011;23859;50.672;7.164;2022-10-16T15:03:04;1.48;;;0.63;;
38053;SDS011;23859;50.672;7.164;2022-10-16T15:05:30;1.02;;;0.60;;
38053;SDS011;23859;50.672;7.164;2022-10-16T15:07:57;5.13;;;0.95;;
38053;SDS011;23859;50.672;7.164;2022-10-16T15:10:24;3.15;;;0.70;;
38053;SDS011;23859;50.672;7.164;2022-10-16T15:12:52;2.65;;;0.70;;
38053;SDS011;23859;50.672;7.164;2022-10-16T15:17:59;1.40;;;0.70;;
38053;SDS011;23859;50.672;7.164;2022-10-16T15:20:30;2.33;;;1.08;;
38053;SDS011;23859;50.672;7.164;2022-10-16T15:22:59;4.23;;;1.40;;
38053;SDS011;23859;50.672;7.164;2022-10-16T15:25:42;1.67;;;1.17;;
38053;SDS011;23859;50.672;7.164;2022-10-16T15:28:15;2.25;;;1.00;;
38053;SDS011;23859;50.672;7.164;2022-10-16T15:30:42;2.92;;;0.88;;
38053;SDS011;23859;50.672;7.164;2022-10-16T15:33:15;0.70;;;0.60;;
38053;SDS011;23859;50.672;7.164;2022-10-16T15:35:46;3.63;;;0.70;;
38053;SDS011;23859;50.672;7.164;2022-10-16T15:38:13;2.63;;;0.82;;
38053;SDS011;23859;50.672;7.164;2022-10-16T15:40:40;4.40;;;1.15;;
38053;SDS011;23859;50.672;7.164;2022-10-16T15:43:06;1.98;;;1.05;;
38053;SDS011;23859;50.672;7.164;2022-10-16T15:45:33;1.52;;;0.80;;
38053;SDS011;23859;50.672;7.164;2022-10-16T15:47:59;1.25;;;0.90;;
38053;SDS011;23859;50.672;7.164;2022-10-16T15:50:26;2.10;;;0.95;;
38053;SDS011;23859;50.672;7.164;2022-10-16T15:52:52;2.70;;;1.20;;
38053;SDS011;23859;50.672;7.164;2022-10-16T15:55:18;1.80;;;1.10;;
38053;SDS011;23859;50.672;7.164;2022-10-16T15:57:44;2.88;;;1.73;;
38053;SDS011;23859;50.672;7.164;2022-10-16T16:00:12;4.85;;;2.10;;
38053;SDS011;23859;50.672;7.164;2022-10-16T16:02:40;2.33;;;1.17;;
38053;SDS011;23859;50.672;7.164;2022-10-16T16:05:07;2.97;;;1.15;;
38053;SDS011;23859;50.672;7.164;2022-10-16T16:07:35;2.42;;;1.27;;
38053;SDS011;23859;50.672;7.164;2022-10-16T16:10:03;2.38;;;1.50;;
38053;SDS011;23859;50.672;7.164;2022-10-16T16:12:31;1.88;;;1.20;;
38053;SDS011;23859;50.672;7.164;2022-10-16T16:14:57;2.38;;;1.20;;
38053;SDS011;23859;50.672;7.164;2022-10-16T16:17:24;5.25;;;1.23;;
38053;SDS011;23859;50.672;7.164;2022-10-16T16:19:50;1.58;;;1.17;;
38053;SDS011;23859;50.672;7.164;2022-10-16T16:22:16;1.30;;;1.20;;
38053;SDS011;23859;50.672;7.164;2022-10-16T16:24:43;2.75;;;1.20;;
38053;SDS011;23859;50.672;7.164;2022-10-16T16:27:09;2.25;;;1.83;;
38053;SDS011;23859;50.672;7.164;2022-10-16T16:29:35;1.17;;;1.00;;
38053;SDS011;23859;50.672;7.164;2022-10-16T16:32:01;3.97;;;1.52;;
38053;SDS011;23859;50.672;7.164;2022-10-16T16:34:27;1.45;;;1.25;;
38053;SDS011;23859;50.672;7.164;2022-10-16T16:36:54;1.48;;;1.00;;
38053;SDS011;23859;50.672;7.164;2022-10-16T16:39:20;0.90;;;0.90;;
38053;SDS011;23859;50.672;7.164;2022-10-16T16:41:47;1.42;;;1.05;;
38053;SDS011;23859;50.672;7.164;2022-10-16T16:44:14;2.05;;;1.00;;
38053;SDS011;23859;50.672;7.164;2022-10-16T16:46:42;2.38;;;1.33;;
38053;SDS011;23859;50.672;7.164;2022-10-16T16:49:09;1.88;;;1.17;;
38053;SDS011;23859;50.672;7.164;2022-10-16T16:51:37;3.28;;;1.35;;
38053;SDS011;23859;50.672;7.164;2022-10-16T16:54:04;2.45;;;1.23;;
38053;SDS011;23859;50.672;7.164;2022-10-16T16:56:32;3.30;;;1.45;;
38053;SDS011;23859;50.672;7.164;2022-10-16T16:58:58;4.03;;;1.15;;
38053;SDS011;23859;50.672;7.164;2022-10-16T17:01:25;2.03;;;1.30;;
38053;SDS011;23859;50.672;7.164;2022-10-16T17:03:53;2.40;;;1.58;;
38053;SDS011;23859;50.672;7.164;2022-10-16T17:06:22;3.80;;;2.45;;
38053;SDS011;23859;50.672;7.164;2022-10-16T17:08:50;2.85;;;1.88;;
38053;SDS011;23859;50.672;7.164;2022-10-16T17:11:21;10.70;;;8.00;;
38053;SDS011;23859;50.672;7.164;2022-10-16T17:13:50;3.85;;;2.92;;
38053;SDS011;23859;50.672;7.164;2022-10-16T17:16:19;2.90;;;2.60;;
38053;SDS011;23859;50.672;7.164;2022-10-16T17:18:46;2.88;;;2.17;;
38053;SDS011;23859;50.672;7.164;2022-10-16T17:21:12;3.78;;;2.95;;
38053;SDS011;23859;50.672;7.164;2022-10-16T17:23:38;3.72;;;2.53;;
38053;SDS011;23859;50.672;7.164;2022-10-16T17:26:11;3.03;;;2.30;;
38053;SDS011;23859;50.672;7.164;2022-10-16T17:28:39;4.32;;;2.33;;
38053;SDS011;23859;50.672;7.164;2022-10-16T17:31:28;3.22;;;1.70;;